Amelia, Nebraska
Current Conditions -  °F | °C
As of 12:35 PM on Saturday 20 Dec 2014 (Local Time) from KBVN Reporting Station
Moderate Fog Moderate Fog  
Wind Chill: 24°   Ceiling: 100
Heat Index: 31°   Visibility: 0.25mi
Dew Point: 29°   Wind: 7mph
Humidity: 94%   Direction: 130°SE
Pressure: 30.01"   Gusts: NA
Location:  42.24°N, 98.91°W
Report Text: KBVN 201835Z AUTO 13006KT 1/4SM FZFG OVC001 M01/M01 A3001 RMK AO2 T10061015
Loading
Personal Weather Stations






























Interactive Weather Map New forecast layout! Learn more

10-Day Weather Forecast

Advertisements
Track Severe Weather on mobile